sensor_id;sensor_type;location;lat;lon;timestamp;P1;durP1;ratioP1;P2;durP2;ratioP2
2998;SDS011;1509;51.964;7.628;2023-06-04T00:01:04;3.10;;;1.67;;
2998;SDS011;1509;51.964;7.628;2023-06-04T00:03:30;6.43;;;1.93;;
2998;SDS011;1509;51.964;7.628;2023-06-04T00:05:56;3.23;;;1.80;;
2998;SDS011;1509;51.964;7.628;2023-06-04T00:08:22;2.40;;;1.37;;
2998;SDS011;1509;51.964;7.628;2023-06-04T00:10:48;3.70;;;1.70;;
2998;SDS011;1509;51.964;7.628;2023-06-04T00:13:14;5.33;;;1.70;;
2998;SDS011;1509;51.964;7.628;2023-06-04T00:15:40;3.47;;;1.70;;
2998;SDS011;1509;51.964;7.628;2023-06-04T00:18:09;4.10;;;1.80;;
2998;SDS011;1509;51.964;7.628;2023-06-04T00:20:36;4.10;;;1.70;;
2998;SDS011;1509;51.964;7.628;2023-06-04T00:23:02;3.90;;;1.80;;
2998;SDS011;1509;51.964;7.628;2023-06-04T00:25:28;5.33;;;2.00;;
2998;SDS011;1509;51.964;7.628;2023-06-04T00:27:53;3.97;;;1.97;;
2998;SDS011;1509;51.964;7.628;2023-06-04T00:30:19;3.40;;;2.00;;
2998;SDS011;1509;51.964;7.628;2023-06-04T00:32:45;3.63;;;1.90;;
2998;SDS011;1509;51.964;7.628;2023-06-04T00:35:11;7.77;;;5.10;;
2998;SDS011;1509;51.964;7.628;2023-06-04T00:37:37;9.60;;;5.20;;
2998;SDS011;1509;51.964;7.628;2023-06-04T00:40:03;3.37;;;2.10;;
2998;SDS011;1509;51.964;7.628;2023-06-04T00:42:30;6.00;;;2.17;;
2998;SDS011;1509;51.964;7.628;2023-06-04T00:44:56;2.60;;;1.80;;
2998;SDS011;1509;51.964;7.628;2023-06-04T00:47:22;3.63;;;1.80;;
2998;SDS011;1509;51.964;7.628;2023-06-04T00:49:48;4.00;;;1.90;;
2998;SDS011;1509;51.964;7.628;2023-06-04T00:52:15;4.60;;;1.90;;
2998;SDS011;1509;51.964;7.628;2023-06-04T00:54:41;3.93;;;2.00;;
2998;SDS011;1509;51.964;7.628;2023-06-04T00:57:07;4.33;;;1.97;;
2998;SDS011;1509;51.964;7.628;2023-06-04T00:59:36;3.03;;;1.80;;
2998;SDS011;1509;51.964;7.628;2023-06-04T01:02:17;4.00;;;2.00;;
2998;SDS011;1509;51.964;7.628;2023-06-04T01:05:07;2.53;;;2.07;;
2998;SDS011;1509;51.964;7.628;2023-06-04T01:08:02;3.03;;;1.90;;
2998;SDS011;1509;51.964;7.628;2023-06-04T01:10:28;4.80;;;1.87;;
2998;SDS011;1509;51.964;7.628;2023-06-04T01:12:53;4.00;;;2.10;;
2998;SDS011;1509;51.964;7.628;2023-06-04T01:15:19;5.57;;;2.10;;
2998;SDS011;1509;51.964;7.628;2023-06-04T01:17:46;4.43;;;2.20;;
2998;SDS011;1509;51.964;7.628;2023-06-04T01:27:56;3.10;;;1.90;;
2998;SDS011;1509;51.964;7.628;2023-06-04T01:30:23;3.50;;;2.10;;
2998;SDS011;1509;51.964;7.628;2023-06-04T01:32:49;5.33;;;1.77;;
2998;SDS011;1509;51.964;7.628;2023-06-04T01:35:15;5.80;;;2.23;;
2998;SDS011;1509;51.964;7.628;2023-06-04T01:37:40;5.70;;;2.57;;
2998;SDS011;1509;51.964;7.628;2023-06-04T01:40:06;3.30;;;2.00;;
2998;SDS011;1509;51.964;7.628;2023-06-04T01:42:33;6.00;;;2.23;;
2998;SDS011;1509;51.964;7.628;2023-06-04T01:44:59;5.33;;;2.40;;
2998;SDS011;1509;51.964;7.628;2023-06-04T01:47:25;6.50;;;2.00;;
2998;SDS011;1509;51.964;7.628;2023-06-04T01:49:51;4.77;;;2.20;;
2998;SDS011;1509;51.964;7.628;2023-06-04T01:52:16;4.00;;;2.33;;
2998;SDS011;1509;51.964;7.628;2023-06-04T01:54:42;3.40;;;2.07;;
2998;SDS011;1509;51.964;7.628;2023-06-04T01:57:08;3.80;;;2.40;;
2998;SDS011;1509;51.964;7.628;2023-06-04T01:59:35;3.50;;;2.00;;
2998;SDS011;1509;51.964;7.628;2023-06-04T02:02:01;4.40;;;2.67;;
2998;SDS011;1509;51.964;7.628;2023-06-04T02:04:27;3.63;;;2.20;;
2998;SDS011;1509;51.964;7.628;2023-06-04T02:06:53;3.37;;;2.00;;
2998;SDS011;1509;51.964;7.628;2023-06-04T02:09:19;5.40;;;1.87;;
2998;SDS011;1509;51.964;7.628;2023-06-04T02:11:45;5.20;;;2.77;;
2998;SDS011;1509;51.964;7.628;2023-06-04T02:14:11;5.20;;;2.30;;
2998;SDS011;1509;51.964;7.628;2023-06-04T02:16:36;3.67;;;1.90;;
2998;SDS011;1509;51.964;7.628;2023-06-04T02:19:02;3.60;;;2.23;;
2998;SDS011;1509;51.964;7.628;2023-06-04T02:21:31;7.43;;;2.33;;
2998;SDS011;1509;51.964;7.628;2023-06-04T02:23:56;3.20;;;2.13;;
2998;SDS011;1509;51.964;7.628;2023-06-04T02:26:22;5.40;;;2.40;;
2998;SDS011;1509;51.964;7.628;2023-06-04T02:28:49;2.80;;;1.80;;
2998;SDS011;1509;51.964;7.628;2023-06-04T02:31:15;4.23;;;2.30;;
2998;SDS011;1509;51.964;7.628;2023-06-04T02:33:41;3.50;;;2.43;;
2998;SDS011;1509;51.964;7.628;2023-06-04T02:36:06;3.37;;;2.00;;
2998;SDS011;1509;51.964;7.628;2023-06-04T02:38:36;5.13;;;2.47;;
2998;SDS011;1509;51.964;7.628;2023-06-04T02:41:02;3.40;;;2.10;;
2998;SDS011;1509;51.964;7.628;2023-06-04T02:43:28;4.07;;;2.27;;
2998;SDS011;1509;51.964;7.628;2023-06-04T02:45:53;5.27;;;2.70;;
2998;SDS011;1509;51.964;7.628;2023-06-04T02:48:19;4.73;;;2.60;;
2998;SDS011;1509;51.964;7.628;2023-06-04T02:50:44;3.33;;;2.10;;
2998;SDS011;1509;51.964;7.628;2023-06-04T02:53:10;6.17;;;2.40;;
2998;SDS011;1509;51.964;7.628;2023-06-04T02:55:36;6.30;;;3.27;;
2998;SDS011;1509;51.964;7.628;2023-06-04T02:58:05;3.00;;;2.10;;
2998;SDS011;1509;51.964;7.628;2023-06-04T03:00:30;3.10;;;2.50;;
2998;SDS011;1509;51.964;7.628;2023-06-04T03:02:56;7.60;;;2.90;;
2998;SDS011;1509;51.964;7.628;2023-06-04T03:05:26;7.30;;;2.50;;
2998;SDS011;1509;51.964;7.628;2023-06-04T03:07:52;3.27;;;2.20;;
2998;SDS011;1509;51.964;7.628;2023-06-04T03:10:18;5.10;;;1.93;;
2998;SDS011;1509;51.964;7.628;2023-06-04T03:12:44;4.73;;;1.97;;
2998;SDS011;1509;51.964;7.628;2023-06-04T03:15:10;2.67;;;2.20;;
2998;SDS011;1509;51.964;7.628;2023-06-04T03:17:36;4.70;;;2.23;;
2998;SDS011;1509;51.964;7.628;2023-06-04T03:20:02;3.37;;;2.20;;
2998;SDS011;1509;51.964;7.628;2023-06-04T03:22:29;4.00;;;2.30;;
2998;SDS011;1509;51.964;7.628;2023-06-04T03:24:55;3.00;;;2.30;;
2998;SDS011;1509;51.964;7.628;2023-06-04T03:27:21;5.47;;;2.63;;
2998;SDS011;1509;51.964;7.628;2023-06-04T03:29:47;3.40;;;2.70;;
2998;SDS011;1509;51.964;7.628;2023-06-04T03:32:13;3.17;;;2.40;;
2998;SDS011;1509;51.964;7.628;2023-06-04T03:34:38;3.50;;;2.33;;
2998;SDS011;1509;51.964;7.628;2023-06-04T03:37:04;5.13;;;2.50;;
2998;SDS011;1509;51.964;7.628;2023-06-04T03:39:30;4.27;;;2.50;;
2998;SDS011;1509;51.964;7.628;2023-06-04T03:41:56;3.40;;;2.40;;
2998;SDS011;1509;51.964;7.628;2023-06-04T03:44:21;3.40;;;2.23;;
2998;SDS011;1509;51.964;7.628;2023-06-04T03:46:47;3.93;;;2.50;;
2998;SDS011;1509;51.964;7.628;2023-06-04T03:49:15;3.77;;;2.60;;
2998;SDS011;1509;51.964;7.628;2023-06-04T03:51:42;4.60;;;2.80;;
2998;SDS011;1509;51.964;7.628;2023-06-04T03:54:08;5.60;;;2.50;;
2998;SDS011;1509;51.964;7.628;2023-06-04T03:56:33;4.80;;;2.43;;
2998;SDS011;1509;51.964;7.628;2023-06-04T03:58:59;4.73;;;2.33;;
2998;SDS011;1509;51.964;7.628;2023-06-04T04:01:25;6.07;;;2.30;;
2998;SDS011;1509;51.964;7.628;2023-06-04T04:03:51;5.10;;;2.80;;
2998;SDS011;1509;51.964;7.628;2023-06-04T04:06:17;3.80;;;2.90;;
2998;SDS011;1509;51.964;7.628;2023-06-04T04:08:44;5.20;;;2.13;;
2998;SDS011;1509;51.964;7.628;2023-06-04T04:11:10;5.53;;;2.60;;
2998;SDS011;1509;51.964;7.628;2023-06-04T04:13:39;4.80;;;2.47;;
2998;SDS011;1509;51.964;7.628;2023-06-04T04:16:04;5.80;;;2.83;;
2998;SDS011;1509;51.964;7.628;2023-06-04T04:18:33;3.83;;;2.90;;
2998;SDS011;1509;51.964;7.628;2023-06-04T04:20:59;6.23;;;2.50;;
2998;SDS011;1509;51.964;7.628;2023-06-04T04:23:26;3.10;;;2.10;;
2998;SDS011;1509;51.964;7.628;2023-06-04T04:25:52;4.17;;;2.60;;
2998;SDS011;1509;51.964;7.628;2023-06-04T04:28:18;3.90;;;2.57;;
2998;SDS011;1509;51.964;7.628;2023-06-04T04:30:44;3.63;;;2.40;;
2998;SDS011;1509;51.964;7.628;2023-06-04T04:33:11;3.77;;;2.60;;
2998;SDS011;1509;51.964;7.628;2023-06-04T04:35:40;5.37;;;2.80;;
2998;SDS011;1509;51.964;7.628;2023-06-04T04:38:09;3.67;;;2.90;;
2998;SDS011;1509;51.964;7.628;2023-06-04T04:40:35;5.13;;;2.90;;
2998;SDS011;1509;51.964;7.628;2023-06-04T04:43:01;5.93;;;3.03;;
2998;SDS011;1509;51.964;7.628;2023-06-04T04:45:27;4.80;;;2.90;;
2998;SDS011;1509;51.964;7.628;2023-06-04T04:47:55;4.60;;;2.80;;
2998;SDS011;1509;51.964;7.628;2023-06-04T04:50:21;5.57;;;3.07;;
2998;SDS011;1509;51.964;7.628;2023-06-04T04:52:50;4.77;;;3.37;;
2998;SDS011;1509;51.964;7.628;2023-06-04T04:55:15;6.20;;;2.90;;
2998;SDS011;1509;51.964;7.628;2023-06-04T04:57:41;3.90;;;2.83;;
2998;SDS011;1509;51.964;7.628;2023-06-04T05:00:10;3.90;;;2.80;;
2998;SDS011;1509;51.964;7.628;2023-06-04T05:02:36;5.17;;;3.20;;
2998;SDS011;1509;51.964;7.628;2023-06-04T05:05:02;3.87;;;2.80;;
2998;SDS011;1509;51.964;7.628;2023-06-04T05:07:28;6.57;;;3.17;;
2998;SDS011;1509;51.964;7.628;2023-06-04T05:09:54;5.10;;;2.70;;
2998;SDS011;1509;51.964;7.628;2023-06-04T05:12:20;5.00;;;3.10;;
2998;SDS011;1509;51.964;7.628;2023-06-04T05:14:45;9.00;;;3.20;;
2998;SDS011;1509;51.964;7.628;2023-06-04T05:17:11;11.40;;;2.60;;
2998;SDS011;1509;51.964;7.628;2023-06-04T05:19:38;5.30;;;3.00;;
2998;SDS011;1509;51.964;7.628;2023-06-04T05:22:03;4.63;;;3.10;;
2998;SDS011;1509;51.964;7.628;2023-06-04T05:24:30;4.27;;;3.00;;
2998;SDS011;1509;51.964;7.628;2023-06-04T05:26:56;3.77;;;3.00;;
2998;SDS011;1509;51.964;7.628;2023-06-04T05:29:22;3.63;;;2.57;;
2998;SDS011;1509;51.964;7.628;2023-06-04T05:31:48;4.83;;;2.80;;
2998;SDS011;1509;51.964;7.628;2023-06-04T05:34:14;5.00;;;2.77;;
2998;SDS011;1509;51.964;7.628;2023-06-04T05:36:41;3.87;;;2.67;;
2998;SDS011;1509;51.964;7.628;2023-06-04T05:39:08;5.43;;;2.83;;
2998;SDS011;1509;51.964;7.628;2023-06-04T05:41:34;4.33;;;2.87;;
2998;SDS011;1509;51.964;7.628;2023-06-04T05:44:01;5.30;;;2.37;;
2998;SDS011;1509;51.964;7.628;2023-06-04T05:46:27;5.20;;;3.10;;
2998;SDS011;1509;51.964;7.628;2023-06-04T05:48:52;5.47;;;3.00;;
2998;SDS011;1509;51.964;7.628;2023-06-04T05:51:19;5.43;;;3.47;;
2998;SDS011;1509;51.964;7.628;2023-06-04T05:53:47;3.70;;;2.67;;
2998;SDS011;1509;51.964;7.628;2023-06-04T05:56:13;4.53;;;2.97;;
2998;SDS011;1509;51.964;7.628;2023-06-04T05:58:39;4.60;;;2.80;;
2998;SDS011;1509;51.964;7.628;2023-06-04T06:01:04;7.47;;;2.70;;
2998;SDS011;1509;51.964;7.628;2023-06-04T06:03:31;5.23;;;2.97;;
2998;SDS011;1509;51.964;7.628;2023-06-04T06:05:57;3.10;;;2.50;;
2998;SDS011;1509;51.964;7.628;2023-06-04T06:08:23;4.70;;;3.10;;
2998;SDS011;1509;51.964;7.628;2023-06-04T06:10:48;4.30;;;3.13;;
2998;SDS011;1509;51.964;7.628;2023-06-04T06:13:15;3.50;;;2.60;;
2998;SDS011;1509;51.964;7.628;2023-06-04T06:15:40;4.00;;;2.73;;
2998;SDS011;1509;51.964;7.628;2023-06-04T06:18:07;4.40;;;2.47;;
2998;SDS011;1509;51.964;7.628;2023-06-04T06:20:32;3.70;;;2.87;;
2998;SDS011;1509;51.964;7.628;2023-06-04T06:23:05;4.67;;;2.70;;
2998;SDS011;1509;51.964;7.628;2023-06-04T06:25:31;5.07;;;2.93;;
2998;SDS011;1509;51.964;7.628;2023-06-04T06:27:56;4.87;;;3.00;;
2998;SDS011;1509;51.964;7.628;2023-06-04T06:30:22;3.43;;;2.73;;
2998;SDS011;1509;51.964;7.628;2023-06-04T06:32:48;4.23;;;2.93;;
2998;SDS011;1509;51.964;7.628;2023-06-04T06:35:15;5.13;;;2.50;;
2998;SDS011;1509;51.964;7.628;2023-06-04T06:37:41;5.00;;;2.50;;
2998;SDS011;1509;51.964;7.628;2023-06-04T06:40:08;6.93;;;2.77;;
2998;SDS011;1509;51.964;7.628;2023-06-04T06:42:34;4.60;;;2.63;;
2998;SDS011;1509;51.964;7.628;2023-06-04T06:45:00;4.93;;;3.00;;
2998;SDS011;1509;51.964;7.628;2023-06-04T06:47:29;3.60;;;2.47;;
2998;SDS011;1509;51.964;7.628;2023-06-04T06:49:54;5.90;;;2.50;;
2998;SDS011;1509;51.964;7.628;2023-06-04T06:52:20;6.70;;;2.30;;
2998;SDS011;1509;51.964;7.628;2023-06-04T06:54:45;2.93;;;1.93;;
2998;SDS011;1509;51.964;7.628;2023-06-04T06:57:11;3.07;;;1.80;;
2998;SDS011;1509;51.964;7.628;2023-06-04T06:59:38;3.50;;;2.57;;
2998;SDS011;1509;51.964;7.628;2023-06-04T07:02:04;4.17;;;2.23;;
2998;SDS011;1509;51.964;7.628;2023-06-04T07:04:31;3.03;;;1.83;;
2998;SDS011;1509;51.964;7.628;2023-06-04T07:06:56;4.30;;;2.30;;
2998;SDS011;1509;51.964;7.628;2023-06-04T07:09:22;3.87;;;1.93;;
2998;SDS011;1509;51.964;7.628;2023-06-04T07:11:48;4.60;;;2.30;;
2998;SDS011;1509;51.964;7.628;2023-06-04T07:14:14;5.53;;;2.37;;
2998;SDS011;1509;51.964;7.628;2023-06-04T07:16:39;4.63;;;2.20;;
2998;SDS011;1509;51.964;7.628;2023-06-04T07:19:05;3.73;;;1.80;;
2998;SDS011;1509;51.964;7.628;2023-06-04T07:21:30;2.90;;;1.77;;
2998;SDS011;1509;51.964;7.628;2023-06-04T07:23:59;5.57;;;2.30;;
2998;SDS011;1509;51.964;7.628;2023-06-04T07:26:25;5.73;;;2.20;;
2998;SDS011;1509;51.964;7.628;2023-06-04T07:28:51;4.87;;;2.27;;
2998;SDS011;1509;51.964;7.628;2023-06-04T07:31:17;4.47;;;2.10;;
2998;SDS011;1509;51.964;7.628;2023-06-04T07:33:43;5.27;;;2.20;;
2998;SDS011;1509;51.964;7.628;2023-06-04T07:36:10;3.60;;;2.00;;
2998;SDS011;1509;51.964;7.628;2023-06-04T07:38:37;4.30;;;2.00;;
2998;SDS011;1509;51.964;7.628;2023-06-04T07:41:05;3.30;;;2.60;;
2998;SDS011;1509;51.964;7.628;2023-06-04T07:43:32;3.90;;;2.67;;
2998;SDS011;1509;51.964;7.628;2023-06-04T07:45:59;3.03;;;1.97;;
2998;SDS011;1509;51.964;7.628;2023-06-04T07:48:27;3.17;;;2.03;;
2998;SDS011;1509;51.964;7.628;2023-06-04T07:50:58;3.43;;;1.93;;
2998;SDS011;1509;51.964;7.628;2023-06-04T07:53:25;2.33;;;1.57;;
2998;SDS011;1509;51.964;7.628;2023-06-04T07:55:51;6.07;;;2.20;;
2998;SDS011;1509;51.964;7.628;2023-06-04T07:58:17;5.13;;;2.10;;
2998;SDS011;1509;51.964;7.628;2023-06-04T08:00:43;3.50;;;2.03;;
2998;SDS011;1509;51.964;7.628;2023-06-04T08:03:08;3.13;;;1.73;;
2998;SDS011;1509;51.964;7.628;2023-06-04T08:05:35;4.73;;;2.00;;
2998;SDS011;1509;51.964;7.628;2023-06-04T08:08:00;5.63;;;2.00;;
2998;SDS011;1509;51.964;7.628;2023-06-04T08:10:29;5.13;;;2.07;;
2998;SDS011;1509;51.964;7.628;2023-06-04T08:12:55;4.63;;;1.80;;
2998;SDS011;1509;51.964;7.628;2023-06-04T08:15:21;3.37;;;1.80;;
2998;SDS011;1509;51.964;7.628;2023-06-04T08:17:50;3.87;;;2.23;;
2998;SDS011;1509;51.964;7.628;2023-06-04T08:20:15;3.53;;;1.50;;
2998;SDS011;1509;51.964;7.628;2023-06-04T08:22:41;4.43;;;1.83;;
2998;SDS011;1509;51.964;7.628;2023-06-04T08:25:07;6.13;;;1.73;;
2998;SDS011;1509;51.964;7.628;2023-06-04T08:27:34;4.33;;;1.83;;
2998;SDS011;1509;51.964;7.628;2023-06-04T08:29:59;3.40;;;1.90;;
2998;SDS011;1509;51.964;7.628;2023-06-04T08:32:25;4.53;;;1.77;;
2998;SDS011;1509;51.964;7.628;2023-06-04T08:34:51;3.90;;;1.80;;
2998;SDS011;1509;51.964;7.628;2023-06-04T08:37:17;4.00;;;1.77;;
2998;SDS011;1509;51.964;7.628;2023-06-04T08:39:43;3.87;;;1.60;;
2998;SDS011;1509;51.964;7.628;2023-06-04T08:42:10;4.93;;;1.80;;
2998;SDS011;1509;51.964;7.628;2023-06-04T08:44:50;2.77;;;1.60;;
2998;SDS011;1509;51.964;7.628;2023-06-04T08:47:19;4.63;;;2.73;;
2998;SDS011;1509;51.964;7.628;2023-06-04T08:49:49;3.67;;;1.53;;
2998;SDS011;1509;51.964;7.628;2023-06-04T08:52:16;5.20;;;1.57;;
2998;SDS011;1509;51.964;7.628;2023-06-04T08:54:42;2.60;;;1.40;;
2998;SDS011;1509;51.964;7.628;2023-06-04T08:57:08;2.67;;;1.60;;
2998;SDS011;1509;51.964;7.628;2023-06-04T08:59:35;2.17;;;1.17;;
2998;SDS011;1509;51.964;7.628;2023-06-04T09:02:01;1.83;;;1.10;;
2998;SDS011;1509;51.964;7.628;2023-06-04T09:04:31;5.13;;;1.43;;
2998;SDS011;1509;51.964;7.628;2023-06-04T09:06:58;3.73;;;1.80;;
2998;SDS011;1509;51.964;7.628;2023-06-04T09:09:27;2.37;;;1.47;;
2998;SDS011;1509;51.964;7.628;2023-06-04T09:11:55;2.90;;;1.70;;
2998;SDS011;1509;51.964;7.628;2023-06-04T09:14:22;2.40;;;1.20;;
2998;SDS011;1509;51.964;7.628;2023-06-04T09:16:52;4.73;;;2.60;;
2998;SDS011;1509;51.964;7.628;2023-06-04T09:19:20;4.80;;;1.80;;
2998;SDS011;1509;51.964;7.628;2023-06-04T09:24:16;2.23;;;1.10;;
2998;SDS011;1509;51.964;7.628;2023-06-04T09:26:42;2.97;;;1.57;;
2998;SDS011;1509;51.964;7.628;2023-06-04T09:29:08;2.83;;;1.63;;
2998;SDS011;1509;51.964;7.628;2023-06-04T09:31:33;2.87;;;1.20;;
2998;SDS011;1509;51.964;7.628;2023-06-04T09:34:02;2.30;;;1.33;;
2998;SDS011;1509;51.964;7.628;2023-06-04T09:36:34;2.13;;;1.30;;
2998;SDS011;1509;51.964;7.628;2023-06-04T09:39:01;2.13;;;1.23;;
2998;SDS011;1509;51.964;7.628;2023-06-04T09:41:28;4.00;;;1.27;;
2998;SDS011;1509;51.964;7.628;2023-06-04T09:44:03;2.37;;;1.33;;
2998;SDS011;1509;51.964;7.628;2023-06-04T09:46:31;3.43;;;1.23;;
2998;SDS011;1509;51.964;7.628;2023-06-04T09:49:01;2.90;;;1.30;;
2998;SDS011;1509;51.964;7.628;2023-06-04T09:51:28;5.90;;;1.60;;
2998;SDS011;1509;51.964;7.628;2023-06-04T09:53:58;1.80;;;1.20;;
2998;SDS011;1509;51.964;7.628;2023-06-04T09:56:28;2.90;;;1.20;;
2998;SDS011;1509;51.964;7.628;2023-06-04T09:58:55;2.00;;;1.40;;
2998;SDS011;1509;51.964;7.628;2023-06-04T10:01:25;2.83;;;1.30;;
2998;SDS011;1509;51.964;7.628;2023-06-04T10:03:53;2.00;;;1.20;;
2998;SDS011;1509;51.964;7.628;2023-06-04T10:06:20;3.43;;;1.33;;
2998;SDS011;1509;51.964;7.628;2023-06-04T10:08:46;1.87;;;1.20;;
2998;SDS011;1509;51.964;7.628;2023-06-04T10:11:14;3.10;;;1.13;;
2998;SDS011;1509;51.964;7.628;2023-06-04T10:16:33;2.40;;;1.47;;
2998;SDS011;1509;51.964;7.628;2023-06-04T10:19:01;2.30;;;1.47;;
2998;SDS011;1509;51.964;7.628;2023-06-04T10:21:30;6.50;;;1.50;;
2998;SDS011;1509;51.964;7.628;2023-06-04T10:24:00;1.87;;;1.00;;
2998;SDS011;1509;51.964;7.628;2023-06-04T10:26:25;3.43;;;1.50;;
2998;SDS011;1509;51.964;7.628;2023-06-04T10:28:52;2.47;;;1.40;;
2998;SDS011;1509;51.964;7.628;2023-06-04T10:31:18;1.97;;;1.23;;
2998;SDS011;1509;51.964;7.628;2023-06-04T10:33:44;4.40;;;1.60;;
2998;SDS011;1509;51.964;7.628;2023-06-04T10:36:19;3.20;;;1.40;;
2998;SDS011;1509;51.964;7.628;2023-06-04T10:38:50;2.47;;;1.30;;
2998;SDS011;1509;51.964;7.628;2023-06-04T10:41:18;3.63;;;1.63;;
2998;SDS011;1509;51.964;7.628;2023-06-04T10:43:44;2.23;;;1.37;;
2998;SDS011;1509;51.964;7.628;2023-06-04T10:46:11;3.13;;;1.93;;
2998;SDS011;1509;51.964;7.628;2023-06-04T10:48:51;3.27;;;1.30;;
2998;SDS011;1509;51.964;7.628;2023-06-04T10:51:29;2.13;;;1.40;;
2998;SDS011;1509;51.964;7.628;2023-06-04T10:53:58;2.87;;;1.40;;
2998;SDS011;1509;51.964;7.628;2023-06-04T10:56:28;2.00;;;1.30;;
2998;SDS011;1509;51.964;7.628;2023-06-04T10:58:57;2.20;;;1.30;;
2998;SDS011;1509;51.964;7.628;2023-06-04T11:01:24;3.23;;;1.50;;
2998;SDS011;1509;51.964;7.628;2023-06-04T11:03:51;2.10;;;1.10;;
2998;SDS011;1509;51.964;7.628;2023-06-04T11:06:16;2.00;;;1.50;;
2998;SDS011;1509;51.964;7.628;2023-06-04T11:08:42;1.80;;;1.10;;
2998;SDS011;1509;51.964;7.628;2023-06-04T11:11:12;2.17;;;1.10;;
2998;SDS011;1509;51.964;7.628;2023-06-04T11:13:39;2.30;;;1.40;;
2998;SDS011;1509;51.964;7.628;2023-06-04T11:16:23;3.20;;;1.27;;
2998;SDS011;1509;51.964;7.628;2023-06-04T11:18:55;2.40;;;1.30;;
2998;SDS011;1509;51.964;7.628;2023-06-04T11:21:22;2.17;;;1.30;;
2998;SDS011;1509;51.964;7.628;2023-06-04T11:23:48;3.20;;;1.30;;
2998;SDS011;1509;51.964;7.628;2023-06-04T11:26:20;2.93;;;1.50;;
2998;SDS011;1509;51.964;7.628;2023-06-04T11:28:48;2.43;;;1.30;;
2998;SDS011;1509;51.964;7.628;2023-06-04T11:31:14;2.40;;;1.40;;
2998;SDS011;1509;51.964;7.628;2023-06-04T11:33:46;3.43;;;1.27;;
2998;SDS011;1509;51.964;7.628;2023-06-04T11:36:25;1.80;;;1.43;;
2998;SDS011;1509;51.964;7.628;2023-06-04T11:39:02;2.13;;;1.23;;
2998;SDS011;1509;51.964;7.628;2023-06-04T11:41:30;2.30;;;1.27;;
2998;SDS011;1509;51.964;7.628;2023-06-04T11:43:57;3.60;;;1.50;;
2998;SDS011;1509;51.964;7.628;2023-06-04T11:46:25;2.40;;;1.30;;
2998;SDS011;1509;51.964;7.628;2023-06-04T11:48:51;2.93;;;1.57;;
2998;SDS011;1509;51.964;7.628;2023-06-04T11:51:18;2.47;;;1.30;;
2998;SDS011;1509;51.964;7.628;2023-06-04T11:53:45;3.17;;;1.20;;
2998;SDS011;1509;51.964;7.628;2023-06-04T11:56:11;2.40;;;1.30;;
2998;SDS011;1509;51.964;7.628;2023-06-04T11:58:37;3.30;;;1.30;;
2998;SDS011;1509;51.964;7.628;2023-06-04T12:01:05;4.67;;;1.50;;
2998;SDS011;1509;51.964;7.628;2023-06-04T12:03:39;2.47;;;1.50;;
2998;SDS011;1509;51.964;7.628;2023-06-04T12:06:12;2.03;;;1.27;;
2998;SDS011;1509;51.964;7.628;2023-06-04T12:08:45;1.60;;;1.20;;
2998;SDS011;1509;51.964;7.628;2023-06-04T12:11:25;2.30;;;1.30;;
2998;SDS011;1509;51.964;7.628;2023-06-04T12:13:53;2.50;;;1.23;;
2998;SDS011;1509;51.964;7.628;2023-06-04T12:16:22;6.30;;;1.60;;
2998;SDS011;1509;51.964;7.628;2023-06-04T12:18:47;2.10;;;1.30;;
2998;SDS011;1509;51.964;7.628;2023-06-04T12:21:20;5.87;;;1.50;;
2998;SDS011;1509;51.964;7.628;2023-06-04T12:23:52;1.90;;;1.30;;
2998;SDS011;1509;51.964;7.628;2023-06-04T12:26:36;1.83;;;1.10;;
2998;SDS011;1509;51.964;7.628;2023-06-04T12:29:14;1.97;;;1.20;;
2998;SDS011;1509;51.964;7.628;2023-06-04T12:31:41;2.33;;;1.10;;
2998;SDS011;1509;51.964;7.628;2023-06-04T12:34:08;2.37;;;1.40;;
2998;SDS011;1509;51.964;7.628;2023-06-04T12:36:34;1.87;;;1.03;;
2998;SDS011;1509;51.964;7.628;2023-06-04T12:39:01;3.27;;;1.50;;
2998;SDS011;1509;51.964;7.628;2023-06-04T12:41:28;2.33;;;2.10;;
2998;SDS011;1509;51.964;7.628;2023-06-04T12:43:54;2.50;;;1.67;;
2998;SDS011;1509;51.964;7.628;2023-06-04T12:46:26;2.30;;;1.33;;
2998;SDS011;1509;51.964;7.628;2023-06-04T12:48:52;2.20;;;1.40;;
2998;SDS011;1509;51.964;7.628;2023-06-04T12:51:19;1.90;;;1.17;;
2998;SDS011;1509;51.964;7.628;2023-06-04T12:53:45;1.70;;;1.20;;
2998;SDS011;1509;51.964;7.628;2023-06-04T12:56:12;3.50;;;1.43;;
2998;SDS011;1509;51.964;7.628;2023-06-04T12:58:38;2.83;;;1.37;;
2998;SDS011;1509;51.964;7.628;2023-06-04T13:01:03;1.90;;;1.10;;
2998;SDS011;1509;51.964;7.628;2023-06-04T13:03:29;3.53;;;1.30;;
2998;SDS011;1509;51.964;7.628;2023-06-04T13:05:56;2.20;;;1.40;;
2998;SDS011;1509;51.964;7.628;2023-06-04T13:08:22;1.83;;;1.20;;
2998;SDS011;1509;51.964;7.628;2023-06-04T13:10:49;2.20;;;1.60;;
2998;SDS011;1509;51.964;7.628;2023-06-04T13:13:16;1.90;;;1.20;;
2998;SDS011;1509;51.964;7.628;2023-06-04T13:15:42;2.17;;;1.60;;
2998;SDS011;1509;51.964;7.628;2023-06-04T13:18:08;2.57;;;1.50;;
2998;SDS011;1509;51.964;7.628;2023-06-04T13:20:34;2.00;;;1.20;;
2998;SDS011;1509;51.964;7.628;2023-06-04T13:23:00;6.50;;;1.37;;
2998;SDS011;1509;51.964;7.628;2023-06-04T13:25:26;1.90;;;1.30;;
2998;SDS011;1509;51.964;7.628;2023-06-04T13:27:56;2.23;;;1.30;;
2998;SDS011;1509;51.964;7.628;2023-06-04T13:30:21;5.27;;;1.43;;
2998;SDS011;1509;51.964;7.628;2023-06-04T13:32:47;2.90;;;1.83;;
2998;SDS011;1509;51.964;7.628;2023-06-04T13:35:13;2.10;;;1.50;;
2998;SDS011;1509;51.964;7.628;2023-06-04T13:37:39;3.00;;;1.80;;
2998;SDS011;1509;51.964;7.628;2023-06-04T13:40:05;2.37;;;1.30;;
2998;SDS011;1509;51.964;7.628;2023-06-04T13:42:31;2.60;;;1.57;;
2998;SDS011;1509;51.964;7.628;2023-06-04T13:44:56;2.73;;;1.53;;
2998;SDS011;1509;51.964;7.628;2023-06-04T13:47:22;2.10;;;1.40;;
2998;SDS011;1509;51.964;7.628;2023-06-04T13:49:48;2.30;;;1.20;;
2998;SDS011;1509;51.964;7.628;2023-06-04T13:52:13;5.13;;;1.30;;
2998;SDS011;1509;51.964;7.628;2023-06-04T13:54:39;2.10;;;1.47;;
2998;SDS011;1509;51.964;7.628;2023-06-04T13:57:05;3.03;;;1.80;;
2998;SDS011;1509;51.964;7.628;2023-06-04T13:59:32;2.77;;;1.60;;
2998;SDS011;1509;51.964;7.628;2023-06-04T14:01:57;2.57;;;1.93;;
2998;SDS011;1509;51.964;7.628;2023-06-04T14:04:23;3.33;;;1.70;;
2998;SDS011;1509;51.964;7.628;2023-06-04T14:06:49;1.87;;;1.10;;
2998;SDS011;1509;51.964;7.628;2023-06-04T14:09:15;2.43;;;1.57;;
2998;SDS011;1509;51.964;7.628;2023-06-04T14:11:41;2.10;;;1.50;;
2998;SDS011;1509;51.964;7.628;2023-06-04T14:14:07;2.50;;;1.60;;
2998;SDS011;1509;51.964;7.628;2023-06-04T14:16:32;2.60;;;1.30;;
2998;SDS011;1509;51.964;7.628;2023-06-04T14:18:58;3.73;;;1.37;;
2998;SDS011;1509;51.964;7.628;2023-06-04T14:21:24;3.40;;;2.07;;
2998;SDS011;1509;51.964;7.628;2023-06-04T14:23:51;4.13;;;1.53;;
2998;SDS011;1509;51.964;7.628;2023-06-04T14:26:17;1.87;;;1.17;;
2998;SDS011;1509;51.964;7.628;2023-06-04T14:28:44;3.77;;;1.70;;
2998;SDS011;1509;51.964;7.628;2023-06-04T14:31:09;2.80;;;1.50;;
2998;SDS011;1509;51.964;7.628;2023-06-04T14:33:37;2.60;;;1.53;;
2998;SDS011;1509;51.964;7.628;2023-06-04T14:36:03;2.60;;;1.67;;
2998;SDS011;1509;51.964;7.628;2023-06-04T14:38:29;3.60;;;1.70;;
2998;SDS011;1509;51.964;7.628;2023-06-04T14:40:55;2.23;;;1.40;;
2998;SDS011;1509;51.964;7.628;2023-06-04T14:43:21;2.90;;;1.33;;
2998;SDS011;1509;51.964;7.628;2023-06-04T14:45:47;3.37;;;1.60;;
2998;SDS011;1509;51.964;7.628;2023-06-04T14:48:13;4.17;;;1.47;;
2998;SDS011;1509;51.964;7.628;2023-06-04T14:50:39;3.07;;;1.80;;
2998;SDS011;1509;51.964;7.628;2023-06-04T14:53:04;9.03;;;1.47;;
2998;SDS011;1509;51.964;7.628;2023-06-04T14:55:32;4.93;;;2.00;;
2998;SDS011;1509;51.964;7.628;2023-06-04T14:58:01;2.20;;;1.40;;
2998;SDS011;1509;51.964;7.628;2023-06-04T15:00:28;3.13;;;1.70;;
2998;SDS011;1509;51.964;7.628;2023-06-04T15:02:54;2.47;;;1.60;;
2998;SDS011;1509;51.964;7.628;2023-06-04T15:05:20;3.63;;;1.53;;
2998;SDS011;1509;51.964;7.628;2023-06-04T15:07:45;5.93;;;1.60;;
2998;SDS011;1509;51.964;7.628;2023-06-04T15:10:11;2.97;;;1.90;;
2998;SDS011;1509;51.964;7.628;2023-06-04T15:12:36;2.43;;;1.37;;
2998;SDS011;1509;51.964;7.628;2023-06-04T15:15:05;2.37;;;1.40;;
2998;SDS011;1509;51.964;7.628;2023-06-04T15:17:31;2.57;;;1.30;;
2998;SDS011;1509;51.964;7.628;2023-06-04T15:19:57;3.53;;;1.60;;
2998;SDS011;1509;51.964;7.628;2023-06-04T15:22:23;2.20;;;1.40;;
2998;SDS011;1509;51.964;7.628;2023-06-04T15:24:50;2.37;;;1.63;;
2998;SDS011;1509;51.964;7.628;2023-06-04T15:27:15;3.27;;;1.40;;